Monday, June 18, 2018, 8:57 PM EDT
Back to Local

KWVL, Waterville, Waterville Robert Lafleur Airport

Location: Waterville, ME, United States Lat: 44.533
Local Time: 8:57 PM EDT ( 0:57 GMT) Lon: -69.683
Time Zone: US/Eastern Elev: 334 ft

Show me the last for .
Show Decoded

2018-06-18 19:56 METAR KWVL 182356Z AUTO 21006KT 10SM CLR 23/21 A2954 RMK AO2 SLP028 6////
                 T02280211 10250 20217 56028 =
2018-06-18 18:56 METAR KWVL 182256Z AUTO 22008KT 10SM CLR 23/22 A2958 RMK AO2 SLP041 T02330222 =
2018-06-18 17:56 METAR KWVL 182156Z AUTO 20004KT 10SM CLR 22/21 A2959 RMK AO2 SLP043 T02220211 =
2018-06-18 16:56 METAR KWVL 182056Z AUTO 22005KT 10SM CLR 22/21 A2963 RMK AO2 RAE25 SLP057 6////
                 T02170206 58019 $ =
2018-06-18 15:56 METAR KWVL 181956Z AUTO 24004KT 10SM RA BKN030 OVC037 22/21 A2968 RMK AO2 RAB22
                 SLP074 T02220206 PNO $ =
2018-06-18 14:56 METAR KWVL 181856Z AUTO 21005KT 10SM CLR 24/19 A2967 RMK AO2 SLP073 T02440194 =
2018-06-18 13:56 METAR KWVL 181756Z AUTO VRB04KT 10SM CLR 25/19 A2968 RMK AO2 SLP076 60000
                 T02500194 10261 20133 56036 =
2018-06-18 12:56 METAR KWVL 181656Z AUTO VRB05KT 10SM FEW060 24/19 A2972 RMK AO2 SLP087 T02440189
                 =
2018-06-18 11:56 METAR KWVL 181556Z AUTO VRB06KT 10SM FEW055 21/17 A2974 RMK AO2 SLP095 T02110172
                 =
2018-06-18 10:56 METAR KWVL 181456Z AUTO VRB03KT 10SM CLR 18/16 A2979 RMK AO2 LTG DSNT N SLP113
                 60000 T01830156 58028 $ =
2018-06-18 09:56 METAR KWVL 181356Z AUTO 00000KT 10SM FEW005 16/14 A2984 RMK AO2 SLP133 T01610144
                 $ =
2018-06-18 09:45 METAR KWVL 181345Z AUTO 00000KT 10SM SCT005 16/14 A2984 RMK AO2 $ =
2018-06-18 08:56 METAR KWVL 181256Z AUTO 19004KT 6SM BR BKN003 14/13 A2984 RMK AO2 RAE33 SLP131
                 P0000 T01390133 $ =
2018-06-18 08:38 METAR KWVL 181238Z AUTO VRB03KT 4SM BR BKN003 BKN033 13/13 A2984 RMK AO2 RAE33
                 P0000 $ =
2018-06-18 08:08 METAR KWVL 181208Z AUTO 00000KT 6SM -RA BR SCT003 SCT034 13/13 A2986 RMK AO2 LTG
                 DSNT N P0000 $ =
2018-06-18 07:56 METAR KWVL 181156Z AUTO 20004KT 6SM -RA BR BKN003 13/13 A2987 RMK AO2 LTG DSNT N
                 SLP142 P0001 60002 70002 T01330128 10133 20111 56020 $ =
2018-06-18 07:15 METAR KWVL 181115Z AUTO 20004KT 5SM BR BKN003 13/12 A2987 RMK AO2 RAE11 P0000 $
                 =
2018-06-18 06:56 METAR KWVL 181056Z AUTO 19004KT 5SM -RA BR FEW003 12/12 A2988 RMK AO2 SLP144
                 P0001 T01220122 $ =
2018-06-18 06:11 METAR KWVL 181011Z AUTO VRB04KT 6SM -RA BR SCT003 BKN037 12/12 A2988 RMK AO2
                 P0000 $ =
2018-06-18 06:05 METAR KWVL 181005Z AUTO VRB03KT 7SM RA BKN003 BKN013 BKN037 12/12 A2988 RMK AO2
                 P0000 $ =
2018-06-18 05:56 METAR KWVL 180956Z AUTO 19004KT 10SM -RA SCT003 12/12 A2989 RMK AO2 RAB0857
                 SLP147 P0000 T01220117 $ =
2018-06-18 05:49 METAR KWVL 180949Z AUTO 00000KT 10SM -RA FEW003 12/12 A2989 RMK AO2 RAB0857
                 P0000 $ =
2018-06-18 04:56 METAR KWVL 180856Z AUTO 22004KT 10SM FEW070 BKN095 BKN110 12/11 A2993 RMK AO2
                 RAB0759E24 SLP161 P0000 60000 T01220111 56012 TSNO $ =
2018-06-18 03:56 METAR KWVL 180756Z AUTO 22004KT 10SM FEW120 12/11 A2994 RMK AO2 SLP162 T01170111
                 $ =
2018-06-18 02:56 METAR KWVL 180656Z AUTO 00000KT 10SM CLR 11/11 A2994 RMK AO2 SLP165 T01110106 $
                 =
2018-06-18 00:56 METAR KWVL 180456Z AUTO 00000KT 10SM CLR 12/11 A3000 RMK AO2 SLP184 T01170106
                 402780117 $ =
2018-06-17 23:56 METAR KWVL 180356Z AUTO 19003KT 10SM CLR 13/11 A3002 RMK AO2 SLP192 T01280106 $
                 =
2018-06-17 22:56 METAR KWVL 180256Z AUTO 00000KT 10SM CLR 13/11 A3003 RMK AO2 SLP195 T01330106
                 58003 $ =
2018-06-17 21:56 METAR KWVL 180156Z AUTO 00000KT 10SM CLR 14/11 A3005 RMK AO2 SLP202 T01440111 $
                 =

Support USWX by starting your Amazon purchase here.